sensor_id;sensor_type;location;lat;lon;timestamp;temperature;humidity
24408;DHT22;12542;50.924;4.516;2023-08-24T00:01:37;20.30;99.90
24408;DHT22;12542;50.924;4.516;2023-08-24T00:04:03;20.40;99.90
24408;DHT22;12542;50.924;4.516;2023-08-24T00:06:29;20.30;99.90
24408;DHT22;12542;50.924;4.516;2023-08-24T00:08:54;20.30;99.90
24408;DHT22;12542;50.924;4.516;2023-08-24T00:11:20;20.40;99.90
24408;DHT22;12542;50.924;4.516;2023-08-24T00:16:49;20.30;99.90
24408;DHT22;12542;50.924;4.516;2023-08-24T00:19:15;20.30;99.90
24408;DHT22;12542;50.924;4.516;2023-08-24T00:21:40;20.30;99.90
24408;DHT22;12542;50.924;4.516;2023-08-24T00:24:06;20.40;99.90
24408;DHT22;12542;50.924;4.516;2023-08-24T00:26:32;20.50;99.90
24408;DHT22;12542;50.924;4.516;2023-08-24T00:28:57;20.50;99.90
24408;DHT22;12542;50.924;4.516;2023-08-24T00:31:23;20.20;99.90
24408;DHT22;12542;50.924;4.516;2023-08-24T00:33:49;20.10;99.90
24408;DHT22;12542;50.924;4.516;2023-08-24T00:36:16;20.10;99.90
24408;DHT22;12542;50.924;4.516;2023-08-24T00:38:43;20.10;99.90
24408;DHT22;12542;50.924;4.516;2023-08-24T00:41:09;20.00;99.90
24408;DHT22;12542;50.924;4.516;2023-08-24T00:43:34;20.00;99.90
24408;DHT22;12542;50.924;4.516;2023-08-24T00:46:01;20.10;99.90
24408;DHT22;12542;50.924;4.516;2023-08-24T00:48:29;20.10;99.90
24408;DHT22;12542;50.924;4.516;2023-08-24T00:50:57;20.00;99.90
24408;DHT22;12542;50.924;4.516;2023-08-24T00:53:24;20.10;99.90
24408;DHT22;12542;50.924;4.516;2023-08-24T00:55:51;20.10;99.90
24408;DHT22;12542;50.924;4.516;2023-08-24T00:58:17;20.10;99.90
24408;DHT22;12542;50.924;4.516;2023-08-24T01:00:44;20.20;99.90
24408;DHT22;12542;50.924;4.516;2023-08-24T01:03:11;20.20;99.90
24408;DHT22;12542;50.924;4.516;2023-08-24T01:05:37;20.20;99.90
24408;DHT22;12542;50.924;4.516;2023-08-24T01:08:03;20.20;99.90
24408;DHT22;12542;50.924;4.516;2023-08-24T01:10:48;20.30;99.90
24408;DHT22;12542;50.924;4.516;2023-08-24T01:13:43;20.30;99.90
24408;DHT22;12542;50.924;4.516;2023-08-24T01:16:25;20.30;99.90
24408;DHT22;12542;50.924;4.516;2023-08-24T01:18:57;20.30;99.90
24408;DHT22;12542;50.924;4.516;2023-08-24T01:21:26;20.40;99.90
24408;DHT22;12542;50.924;4.516;2023-08-24T01:24:11;20.50;99.90
24408;DHT22;12542;50.924;4.516;2023-08-24T01:26:38;20.60;99.90
24408;DHT22;12542;50.924;4.516;2023-08-24T01:29:05;20.60;99.90
24408;DHT22;12542;50.924;4.516;2023-08-24T01:31:32;20.50;99.90
24408;DHT22;12542;50.924;4.516;2023-08-24T01:33:58;20.50;99.90
24408;DHT22;12542;50.924;4.516;2023-08-24T01:36:25;20.70;99.90
24408;DHT22;12542;50.924;4.516;2023-08-24T01:39:11;20.60;99.90
24408;DHT22;12542;50.924;4.516;2023-08-24T01:41:40;20.50;99.90
24408;DHT22;12542;50.924;4.516;2023-08-24T01:44:11;20.40;99.90
24408;DHT22;12542;50.924;4.516;2023-08-24T01:46:38;20.60;99.90
24408;DHT22;12542;50.924;4.516;2023-08-24T01:49:05;20.70;99.90
24408;DHT22;12542;50.924;4.516;2023-08-24T01:51:33;20.70;99.90
24408;DHT22;12542;50.924;4.516;2023-08-24T01:54:00;20.60;99.90
24408;DHT22;12542;50.924;4.516;2023-08-24T01:56:26;20.70;99.90
24408;DHT22;12542;50.924;4.516;2023-08-24T01:58:53;20.40;99.90
24408;DHT22;12542;50.924;4.516;2023-08-24T02:01:18;20.40;99.90
24408;DHT22;12542;50.924;4.516;2023-08-24T02:03:44;20.60;99.90
24408;DHT22;12542;50.924;4.516;2023-08-24T02:06:10;20.60;99.90
24408;DHT22;12542;50.924;4.516;2023-08-24T02:08:36;20.30;99.90
24408;DHT22;12542;50.924;4.516;2023-08-24T02:11:01;20.30;99.90
24408;DHT22;12542;50.924;4.516;2023-08-24T02:13:27;20.20;99.90
24408;DHT22;12542;50.924;4.516;2023-08-24T02:16:04;20.40;99.90
24408;DHT22;12542;50.924;4.516;2023-08-24T02:18:29;20.40;99.90
24408;DHT22;12542;50.924;4.516;2023-08-24T02:20:55;20.30;99.90
24408;DHT22;12542;50.924;4.516;2023-08-24T02:23:21;20.20;99.90
24408;DHT22;12542;50.924;4.516;2023-08-24T02:25:46;19.70;99.90
24408;DHT22;12542;50.924;4.516;2023-08-24T02:28:12;19.60;99.90
24408;DHT22;12542;50.924;4.516;2023-08-24T02:30:38;19.50;99.90
24408;DHT22;12542;50.924;4.516;2023-08-24T02:33:04;19.50;99.90
24408;DHT22;12542;50.924;4.516;2023-08-24T02:35:30;19.50;99.90
24408;DHT22;12542;50.924;4.516;2023-08-24T02:37:58;19.20;99.90
24408;DHT22;12542;50.924;4.516;2023-08-24T02:40:24;19.30;99.90
24408;DHT22;12542;50.924;4.516;2023-08-24T02:42:50;19.30;99.90
24408;DHT22;12542;50.924;4.516;2023-08-24T02:45:15;19.10;99.90
24408;DHT22;12542;50.924;4.516;2023-08-24T02:47:41;19.20;99.90
24408;DHT22;12542;50.924;4.516;2023-08-24T02:50:07;19.30;99.90
24408;DHT22;12542;50.924;4.516;2023-08-24T02:52:33;19.30;99.90
24408;DHT22;12542;50.924;4.516;2023-08-24T02:54:58;19.40;99.90
24408;DHT22;12542;50.924;4.516;2023-08-24T02:57:26;19.40;99.90
24408;DHT22;12542;50.924;4.516;2023-08-24T02:59:52;19.50;99.90
24408;DHT22;12542;50.924;4.516;2023-08-24T03:02:18;19.60;99.90
24408;DHT22;12542;50.924;4.516;2023-08-24T03:04:44;19.60;99.90
24408;DHT22;12542;50.924;4.516;2023-08-24T03:07:10;19.80;99.90
24408;DHT22;12542;50.924;4.516;2023-08-24T03:09:36;19.80;99.90
24408;DHT22;12542;50.924;4.516;2023-08-24T03:12:02;19.80;99.90
24408;DHT22;12542;50.924;4.516;2023-08-24T03:14:30;19.90;99.90
24408;DHT22;12542;50.924;4.516;2023-08-24T03:16:56;19.90;99.90
24408;DHT22;12542;50.924;4.516;2023-08-24T03:19:21;19.90;99.90
24408;DHT22;12542;50.924;4.516;2023-08-24T03:21:47;19.80;99.90
24408;DHT22;12542;50.924;4.516;2023-08-24T03:24:13;19.90;99.90
24408;DHT22;12542;50.924;4.516;2023-08-24T03:26:38;19.90;99.90
24408;DHT22;12542;50.924;4.516;2023-08-24T03:29:04;19.90;99.90
24408;DHT22;12542;50.924;4.516;2023-08-24T03:31:29;20.00;99.90
24408;DHT22;12542;50.924;4.516;2023-08-24T03:33:55;19.90;99.90
24408;DHT22;12542;50.924;4.516;2023-08-24T03:36:21;20.00;99.90
24408;DHT22;12542;50.924;4.516;2023-08-24T03:38:49;19.90;99.90
24408;DHT22;12542;50.924;4.516;2023-08-24T03:41:15;19.90;99.90
24408;DHT22;12542;50.924;4.516;2023-08-24T03:43:40;19.90;99.90
24408;DHT22;12542;50.924;4.516;2023-08-24T03:46:09;19.80;99.90
24408;DHT22;12542;50.924;4.516;2023-08-24T03:48:34;19.60;99.90
24408;DHT22;12542;50.924;4.516;2023-08-24T03:51:00;19.40;99.90
24408;DHT22;12542;50.924;4.516;2023-08-24T03:53:28;19.40;99.90
24408;DHT22;12542;50.924;4.516;2023-08-24T03:55:54;19.30;99.90
24408;DHT22;12542;50.924;4.516;2023-08-24T03:58:27;19.30;99.90
24408;DHT22;12542;50.924;4.516;2023-08-24T04:00:59;19.30;99.90
24408;DHT22;12542;50.924;4.516;2023-08-24T04:03:25;19.30;99.90
24408;DHT22;12542;50.924;4.516;2023-08-24T04:05:51;19.30;99.90
24408;DHT22;12542;50.924;4.516;2023-08-24T04:08:17;19.30;99.90
24408;DHT22;12542;50.924;4.516;2023-08-24T04:10:52;19.30;99.90
24408;DHT22;12542;50.924;4.516;2023-08-24T04:13:23;19.30;99.90
24408;DHT22;12542;50.924;4.516;2023-08-24T04:15:49;19.30;99.90
24408;DHT22;12542;50.924;4.516;2023-08-24T04:18:15;19.20;99.90
24408;DHT22;12542;50.924;4.516;2023-08-24T04:20:51;19.30;99.90
24408;DHT22;12542;50.924;4.516;2023-08-24T04:23:17;19.10;99.90
24408;DHT22;12542;50.924;4.516;2023-08-24T04:25:43;19.10;99.90
24408;DHT22;12542;50.924;4.516;2023-08-24T04:28:12;19.10;99.90
24408;DHT22;12542;50.924;4.516;2023-08-24T04:30:38;19.20;99.90
24408;DHT22;12542;50.924;4.516;2023-08-24T04:33:05;19.20;99.90
24408;DHT22;12542;50.924;4.516;2023-08-24T04:35:35;19.10;99.90
24408;DHT22;12542;50.924;4.516;2023-08-24T04:38:03;19.10;99.90
24408;DHT22;12542;50.924;4.516;2023-08-24T04:40:47;19.10;99.90
24408;DHT22;12542;50.924;4.516;2023-08-24T04:43:13;19.20;99.90
24408;DHT22;12542;50.924;4.516;2023-08-24T04:45:39;19.10;99.90
24408;DHT22;12542;50.924;4.516;2023-08-24T04:48:05;19.10;99.90
24408;DHT22;12542;50.924;4.516;2023-08-24T04:50:30;19.00;99.90
24408;DHT22;12542;50.924;4.516;2023-08-24T04:52:56;19.10;99.90
24408;DHT22;12542;50.924;4.516;2023-08-24T04:55:22;19.10;99.90
24408;DHT22;12542;50.924;4.516;2023-08-24T04:57:48;19.10;99.90
24408;DHT22;12542;50.924;4.516;2023-08-24T05:00:16;19.10;99.90
24408;DHT22;12542;50.924;4.516;2023-08-24T05:02:42;19.00;99.90
24408;DHT22;12542;50.924;4.516;2023-08-24T05:05:09;19.00;99.90
24408;DHT22;12542;50.924;4.516;2023-08-24T05:07:37;19.20;99.90
24408;DHT22;12542;50.924;4.516;2023-08-24T05:10:06;19.30;99.90
24408;DHT22;12542;50.924;4.516;2023-08-24T05:12:32;19.20;99.90
24408;DHT22;12542;50.924;4.516;2023-08-24T05:15:01;19.30;99.90
24408;DHT22;12542;50.924;4.516;2023-08-24T05:17:27;19.30;99.90
24408;DHT22;12542;50.924;4.516;2023-08-24T05:19:56;19.40;99.90
24408;DHT22;12542;50.924;4.516;2023-08-24T05:22:22;19.40;99.90
24408;DHT22;12542;50.924;4.516;2023-08-24T05:24:48;19.60;99.90
24408;DHT22;12542;50.924;4.516;2023-08-24T05:27:13;20.00;99.90
24408;DHT22;12542;50.924;4.516;2023-08-24T05:29:39;20.80;99.90
24408;DHT22;12542;50.924;4.516;2023-08-24T05:32:05;21.50;99.90
24408;DHT22;12542;50.924;4.516;2023-08-24T05:34:30;22.10;99.90
24408;DHT22;12542;50.924;4.516;2023-08-24T05:36:56;22.50;99.90
24408;DHT22;12542;50.924;4.516;2023-08-24T05:39:22;22.90;99.90
24408;DHT22;12542;50.924;4.516;2023-08-24T05:41:51;24.00;99.90
24408;DHT22;12542;50.924;4.516;2023-08-24T05:44:20;25.10;99.90
24408;DHT22;12542;50.924;4.516;2023-08-24T05:46:47;26.20;99.90
24408;DHT22;12542;50.924;4.516;2023-08-24T05:49:13;27.20;99.90
24408;DHT22;12542;50.924;4.516;2023-08-24T05:51:38;28.10;99.90
24408;DHT22;12542;50.924;4.516;2023-08-24T05:54:04;29.00;99.90
24408;DHT22;12542;50.924;4.516;2023-08-24T05:56:30;29.70;99.90
24408;DHT22;12542;50.924;4.516;2023-08-24T05:58:57;29.60;99.90
24408;DHT22;12542;50.924;4.516;2023-08-24T06:01:24;29.40;99.90
24408;DHT22;12542;50.924;4.516;2023-08-24T06:03:50;29.10;99.90
24408;DHT22;12542;50.924;4.516;2023-08-24T06:06:18;29.30;99.90
24408;DHT22;12542;50.924;4.516;2023-08-24T06:08:43;29.50;99.90
24408;DHT22;12542;50.924;4.516;2023-08-24T06:11:09;29.70;99.90
24408;DHT22;12542;50.924;4.516;2023-08-24T06:13:35;30.30;99.90
24408;DHT22;12542;50.924;4.516;2023-08-24T06:16:01;30.60;99.90
24408;DHT22;12542;50.924;4.516;2023-08-24T06:18:27;31.20;99.80
24408;DHT22;12542;50.924;4.516;2023-08-24T06:20:53;31.20;99.00
24408;DHT22;12542;50.924;4.516;2023-08-24T06:23:19;31.50;98.30
24408;DHT22;12542;50.924;4.516;2023-08-24T06:25:45;31.70;97.70
24408;DHT22;12542;50.924;4.516;2023-08-24T06:28:12;31.80;97.90
24408;DHT22;12542;50.924;4.516;2023-08-24T06:30:39;31.80;97.50
24408;DHT22;12542;50.924;4.516;2023-08-24T06:33:06;32.10;96.50
24408;DHT22;12542;50.924;4.516;2023-08-24T06:35:33;32.10;96.70
24408;DHT22;12542;50.924;4.516;2023-08-24T06:37:58;31.50;96.90
24408;DHT22;12542;50.924;4.516;2023-08-24T06:40:24;30.80;97.80
24408;DHT22;12542;50.924;4.516;2023-08-24T06:42:50;30.00;99.60
24408;DHT22;12542;50.924;4.516;2023-08-24T06:45:16;30.00;99.90
24408;DHT22;12542;50.924;4.516;2023-08-24T06:47:43;30.40;99.90
24408;DHT22;12542;50.924;4.516;2023-08-24T06:50:09;30.10;99.90
24408;DHT22;12542;50.924;4.516;2023-08-24T06:52:35;29.90;99.90
24408;DHT22;12542;50.924;4.516;2023-08-24T06:55:01;30.10;99.90
24408;DHT22;12542;50.924;4.516;2023-08-24T06:57:27;30.00;99.90
24408;DHT22;12542;50.924;4.516;2023-08-24T06:59:53;30.20;99.90
24408;DHT22;12542;50.924;4.516;2023-08-24T07:02:18;30.00;99.90
24408;DHT22;12542;50.924;4.516;2023-08-24T07:04:44;30.00;99.90
24408;DHT22;12542;50.924;4.516;2023-08-24T07:07:10;29.70;99.90
24408;DHT22;12542;50.924;4.516;2023-08-24T07:09:36;29.40;99.90
24408;DHT22;12542;50.924;4.516;2023-08-24T07:12:02;28.80;99.90
24408;DHT22;12542;50.924;4.516;2023-08-24T07:14:29;28.50;99.90
24408;DHT22;12542;50.924;4.516;2023-08-24T07:16:54;28.30;99.90
24408;DHT22;12542;50.924;4.516;2023-08-24T07:19:20;28.30;99.90
24408;DHT22;12542;50.924;4.516;2023-08-24T07:21:46;28.60;99.90
24408;DHT22;12542;50.924;4.516;2023-08-24T07:24:12;28.90;99.90
24408;DHT22;12542;50.924;4.516;2023-08-24T07:26:40;29.30;99.90
24408;DHT22;12542;50.924;4.516;2023-08-24T07:29:07;29.20;99.90
24408;DHT22;12542;50.924;4.516;2023-08-24T07:31:33;29.20;99.90
24408;DHT22;12542;50.924;4.516;2023-08-24T07:33:59;28.90;99.90
24408;DHT22;12542;50.924;4.516;2023-08-24T07:36:25;28.40;99.90
24408;DHT22;12542;50.924;4.516;2023-08-24T07:38:51;28.00;99.90
24408;DHT22;12542;50.924;4.516;2023-08-24T07:41:16;27.90;99.90
24408;DHT22;12542;50.924;4.516;2023-08-24T07:43:43;27.70;99.90
24408;DHT22;12542;50.924;4.516;2023-08-24T07:46:09;27.60;99.90
24408;DHT22;12542;50.924;4.516;2023-08-24T07:48:35;27.60;99.90
24408;DHT22;12542;50.924;4.516;2023-08-24T07:51:01;27.50;99.90
24408;DHT22;12542;50.924;4.516;2023-08-24T07:53:30;26.90;99.90
24408;DHT22;12542;50.924;4.516;2023-08-24T07:55:56;26.70;99.90
24408;DHT22;12542;50.924;4.516;2023-08-24T07:58:23;26.80;99.90
24408;DHT22;12542;50.924;4.516;2023-08-24T08:00:52;26.80;99.90
24408;DHT22;12542;50.924;4.516;2023-08-24T08:03:19;26.40;99.90
24408;DHT22;12542;50.924;4.516;2023-08-24T08:05:45;26.20;99.90
24408;DHT22;12542;50.924;4.516;2023-08-24T08:08:15;26.20;99.90
24408;DHT22;12542;50.924;4.516;2023-08-24T08:10:41;26.30;99.90
24408;DHT22;12542;50.924;4.516;2023-08-24T08:13:08;26.10;99.90
24408;DHT22;12542;50.924;4.516;2023-08-24T08:15:34;26.20;99.90
24408;DHT22;12542;50.924;4.516;2023-08-24T08:17:59;26.00;99.90
24408;DHT22;12542;50.924;4.516;2023-08-24T08:20:25;26.00;99.90
24408;DHT22;12542;50.924;4.516;2023-08-24T08:22:51;26.00;99.90
24408;DHT22;12542;50.924;4.516;2023-08-24T08:25:17;25.80;99.90
24408;DHT22;12542;50.924;4.516;2023-08-24T08:27:47;25.80;99.90
24408;DHT22;12542;50.924;4.516;2023-08-24T08:30:13;25.70;99.90
24408;DHT22;12542;50.924;4.516;2023-08-24T08:32:40;25.80;99.90
24408;DHT22;12542;50.924;4.516;2023-08-24T08:35:09;25.80;99.90
24408;DHT22;12542;50.924;4.516;2023-08-24T08:37:35;25.70;99.90
24408;DHT22;12542;50.924;4.516;2023-08-24T08:40:08;25.80;99.90
24408;DHT22;12542;50.924;4.516;2023-08-24T08:42:35;25.70;99.90
24408;DHT22;12542;50.924;4.516;2023-08-24T08:45:03;25.80;99.90
24408;DHT22;12542;50.924;4.516;2023-08-24T08:47:30;25.90;99.90
24408;DHT22;12542;50.924;4.516;2023-08-24T08:49:56;26.10;99.90
24408;DHT22;12542;50.924;4.516;2023-08-24T08:52:21;26.30;99.90
24408;DHT22;12542;50.924;4.516;2023-08-24T08:54:47;26.50;99.90
24408;DHT22;12542;50.924;4.516;2023-08-24T08:57:16;26.40;99.90
24408;DHT22;12542;50.924;4.516;2023-08-24T08:59:43;26.50;99.90
24408;DHT22;12542;50.924;4.516;2023-08-24T09:02:12;26.40;99.90
24408;DHT22;12542;50.924;4.516;2023-08-24T09:04:38;26.60;99.90
24408;DHT22;12542;50.924;4.516;2023-08-24T09:07:05;26.60;99.90
24408;DHT22;12542;50.924;4.516;2023-08-24T09:09:36;26.40;99.90
24408;DHT22;12542;50.924;4.516;2023-08-24T09:12:03;26.40;99.90
24408;DHT22;12542;50.924;4.516;2023-08-24T09:14:30;26.30;99.90
24408;DHT22;12542;50.924;4.516;2023-08-24T09:16:56;26.50;99.90
24408;DHT22;12542;50.924;4.516;2023-08-24T09:19:32;26.50;99.90
24408;DHT22;12542;50.924;4.516;2023-08-24T09:24:33;26.70;99.90
24408;DHT22;12542;50.924;4.516;2023-08-24T09:27:04;26.50;99.90
24408;DHT22;12542;50.924;4.516;2023-08-24T09:29:36;26.30;99.90
24408;DHT22;12542;50.924;4.516;2023-08-24T09:32:02;26.00;99.90
24408;DHT22;12542;50.924;4.516;2023-08-24T09:34:30;26.00;99.90
24408;DHT22;12542;50.924;4.516;2023-08-24T09:36:56;26.00;99.90
24408;DHT22;12542;50.924;4.516;2023-08-24T09:39:22;25.90;99.90
24408;DHT22;12542;50.924;4.516;2023-08-24T09:41:50;25.70;99.90
24408;DHT22;12542;50.924;4.516;2023-08-24T09:44:18;25.50;99.90
24408;DHT22;12542;50.924;4.516;2023-08-24T09:46:45;25.20;99.90
24408;DHT22;12542;50.924;4.516;2023-08-24T09:49:11;25.10;99.90
24408;DHT22;12542;50.924;4.516;2023-08-24T09:51:39;24.70;99.90
24408;DHT22;12542;50.924;4.516;2023-08-24T09:54:09;24.40;99.90
24408;DHT22;12542;50.924;4.516;2023-08-24T09:56:40;23.90;99.90
24408;DHT22;12542;50.924;4.516;2023-08-24T09:59:14;23.70;99.90
24408;DHT22;12542;50.924;4.516;2023-08-24T10:01:45;23.50;99.90
24408;DHT22;12542;50.924;4.516;2023-08-24T10:04:19;23.50;99.90
24408;DHT22;12542;50.924;4.516;2023-08-24T10:06:49;23.40;99.90
24408;DHT22;12542;50.924;4.516;2023-08-24T10:09:27;23.50;99.90
24408;DHT22;12542;50.924;4.516;2023-08-24T10:11:58;23.50;99.90
24408;DHT22;12542;50.924;4.516;2023-08-24T10:16:52;23.10;99.90
24408;DHT22;12542;50.924;4.516;2023-08-24T10:19:18;22.90;99.90
24408;DHT22;12542;50.924;4.516;2023-08-24T10:21:45;22.80;99.90
24408;DHT22;12542;50.924;4.516;2023-08-24T10:24:12;22.70;99.90
24408;DHT22;12542;50.924;4.516;2023-08-24T10:26:42;22.60;99.90
24408;DHT22;12542;50.924;4.516;2023-08-24T10:29:09;22.50;99.90
24408;DHT22;12542;50.924;4.516;2023-08-24T10:31:36;22.20;99.90
24408;DHT22;12542;50.924;4.516;2023-08-24T10:34:05;21.80;99.90
24408;DHT22;12542;50.924;4.516;2023-08-24T10:36:31;21.50;99.90
24408;DHT22;12542;50.924;4.516;2023-08-24T10:39:02;21.40;99.90
24408;DHT22;12542;50.924;4.516;2023-08-24T10:41:49;21.40;99.90
24408;DHT22;12542;50.924;4.516;2023-08-24T10:44:33;21.40;99.90
24408;DHT22;12542;50.924;4.516;2023-08-24T10:47:18;21.60;99.90
24408;DHT22;12542;50.924;4.516;2023-08-24T10:54:55;21.40;99.90
24408;DHT22;12542;50.924;4.516;2023-08-24T10:57:39;21.20;99.90
24408;DHT22;12542;50.924;4.516;2023-08-24T11:00:07;21.20;99.90
24408;DHT22;12542;50.924;4.516;2023-08-24T11:02:51;21.40;99.90
24408;DHT22;12542;50.924;4.516;2023-08-24T11:05:30;21.60;99.90
24408;DHT22;12542;50.924;4.516;2023-08-24T11:08:05;21.60;99.90
24408;DHT22;12542;50.924;4.516;2023-08-24T11:10:49;21.70;99.90
24408;DHT22;12542;50.924;4.516;2023-08-24T11:15:42;21.80;99.90
24408;DHT22;12542;50.924;4.516;2023-08-24T11:18:24;21.80;99.90
24408;DHT22;12542;50.924;4.516;2023-08-24T11:21:02;21.80;99.90
24408;DHT22;12542;50.924;4.516;2023-08-24T11:23:28;22.10;99.90
24408;DHT22;12542;50.924;4.516;2023-08-24T11:25:55;22.30;99.90
24408;DHT22;12542;50.924;4.516;2023-08-24T11:28:26;22.30;99.90
24408;DHT22;12542;50.924;4.516;2023-08-24T11:30:52;22.60;99.90
24408;DHT22;12542;50.924;4.516;2023-08-24T11:33:32;22.60;99.90
24408;DHT22;12542;50.924;4.516;2023-08-24T11:35:59;22.80;99.90
24408;DHT22;12542;50.924;4.516;2023-08-24T11:38:34;23.00;99.90
24408;DHT22;12542;50.924;4.516;2023-08-24T11:41:00;22.90;99.90
24408;DHT22;12542;50.924;4.516;2023-08-24T11:43:26;23.10;99.90
24408;DHT22;12542;50.924;4.516;2023-08-24T11:45:54;23.20;99.90
24408;DHT22;12542;50.924;4.516;2023-08-24T11:48:24;23.10;99.90
24408;DHT22;12542;50.924;4.516;2023-08-24T11:50:50;22.60;99.90
24408;DHT22;12542;50.924;4.516;2023-08-24T11:53:17;22.50;99.90
24408;DHT22;12542;50.924;4.516;2023-08-24T11:55:42;22.60;99.90
24408;DHT22;12542;50.924;4.516;2023-08-24T11:58:18;22.80;99.90
24408;DHT22;12542;50.924;4.516;2023-08-24T12:00:45;22.90;99.90
24408;DHT22;12542;50.924;4.516;2023-08-24T12:03:11;23.10;99.90
24408;DHT22;12542;50.924;4.516;2023-08-24T12:05:37;23.40;99.90
24408;DHT22;12542;50.924;4.516;2023-08-24T12:08:04;23.50;99.90
24408;DHT22;12542;50.924;4.516;2023-08-24T12:10:31;23.70;99.90
24408;DHT22;12542;50.924;4.516;2023-08-24T12:13:06;23.80;99.90
24408;DHT22;12542;50.924;4.516;2023-08-24T12:15:36;23.70;99.90
24408;DHT22;12542;50.924;4.516;2023-08-24T12:18:13;23.80;99.90
24408;DHT22;12542;50.924;4.516;2023-08-24T12:20:40;23.90;99.90
24408;DHT22;12542;50.924;4.516;2023-08-24T12:23:06;23.80;99.90
24408;DHT22;12542;50.924;4.516;2023-08-24T12:25:37;23.50;99.90
24408;DHT22;12542;50.924;4.516;2023-08-24T12:28:15;23.20;99.90
24408;DHT22;12542;50.924;4.516;2023-08-24T12:30:51;22.90;99.90
24408;DHT22;12542;50.924;4.516;2023-08-24T12:35:52;22.20;99.90
24408;DHT22;12542;50.924;4.516;2023-08-24T12:38:18;22.00;99.90
24408;DHT22;12542;50.924;4.516;2023-08-24T12:40:43;21.80;99.90
24408;DHT22;12542;50.924;4.516;2023-08-24T12:43:09;21.70;99.90
24408;DHT22;12542;50.924;4.516;2023-08-24T12:45:35;21.60;99.90
24408;DHT22;12542;50.924;4.516;2023-08-24T12:48:03;21.40;99.90
24408;DHT22;12542;50.924;4.516;2023-08-24T12:50:29;21.40;99.90
24408;DHT22;12542;50.924;4.516;2023-08-24T12:52:55;21.40;99.90
24408;DHT22;12542;50.924;4.516;2023-08-24T12:55:25;21.40;99.90
24408;DHT22;12542;50.924;4.516;2023-08-24T12:57:50;21.30;99.90
24408;DHT22;12542;50.924;4.516;2023-08-24T13:00:16;21.20;99.90
24408;DHT22;12542;50.924;4.516;2023-08-24T13:02:44;21.20;99.90
24408;DHT22;12542;50.924;4.516;2023-08-24T13:05:10;21.20;99.90
24408;DHT22;12542;50.924;4.516;2023-08-24T13:07:36;21.10;99.90
24408;DHT22;12542;50.924;4.516;2023-08-24T13:10:02;21.20;99.90
24408;DHT22;12542;50.924;4.516;2023-08-24T13:12:29;21.20;99.90
24408;DHT22;12542;50.924;4.516;2023-08-24T13:14:54;21.20;99.90
24408;DHT22;12542;50.924;4.516;2023-08-24T13:17:22;21.10;99.90
24408;DHT22;12542;50.924;4.516;2023-08-24T13:19:48;21.10;99.90
24408;DHT22;12542;50.924;4.516;2023-08-24T13:22:16;21.10;99.90
24408;DHT22;12542;50.924;4.516;2023-08-24T13:24:42;21.20;99.90
24408;DHT22;12542;50.924;4.516;2023-08-24T13:27:11;21.20;99.90
24408;DHT22;12542;50.924;4.516;2023-08-24T13:29:37;21.30;99.90
24408;DHT22;12542;50.924;4.516;2023-08-24T13:32:03;21.40;99.90
24408;DHT22;12542;50.924;4.516;2023-08-24T13:34:30;21.30;99.90
24408;DHT22;12542;50.924;4.516;2023-08-24T13:36:59;21.30;99.90
24408;DHT22;12542;50.924;4.516;2023-08-24T13:39:26;21.30;99.90
24408;DHT22;12542;50.924;4.516;2023-08-24T13:41:54;21.20;99.90
24408;DHT22;12542;50.924;4.516;2023-08-24T13:44:20;21.20;99.90
24408;DHT22;12542;50.924;4.516;2023-08-24T13:46:46;21.20;99.90
24408;DHT22;12542;50.924;4.516;2023-08-24T13:49:14;21.20;99.90
24408;DHT22;12542;50.924;4.516;2023-08-24T13:51:42;21.20;99.90
24408;DHT22;12542;50.924;4.516;2023-08-24T13:54:15;21.20;99.90
24408;DHT22;12542;50.924;4.516;2023-08-24T13:56:41;21.10;99.90
24408;DHT22;12542;50.924;4.516;2023-08-24T13:59:07;21.10;99.90
24408;DHT22;12542;50.924;4.516;2023-08-24T14:01:33;21.20;99.90
24408;DHT22;12542;50.924;4.516;2023-08-24T14:03:58;21.20;99.90
24408;DHT22;12542;50.924;4.516;2023-08-24T14:06:24;21.20;99.90
24408;DHT22;12542;50.924;4.516;2023-08-24T14:08:53;21.30;99.90
24408;DHT22;12542;50.924;4.516;2023-08-24T14:11:23;21.30;99.90
24408;DHT22;12542;50.924;4.516;2023-08-24T14:13:49;21.40;99.90
24408;DHT22;12542;50.924;4.516;2023-08-24T14:16:14;21.50;99.90
24408;DHT22;12542;50.924;4.516;2023-08-24T14:18:40;21.80;99.90
24408;DHT22;12542;50.924;4.516;2023-08-24T14:21:06;21.70;99.90
24408;DHT22;12542;50.924;4.516;2023-08-24T14:23:32;21.90;99.90
24408;DHT22;12542;50.924;4.516;2023-08-24T14:25:57;22.20;99.90
24408;DHT22;12542;50.924;4.516;2023-08-24T14:28:23;22.40;99.90
24408;DHT22;12542;50.924;4.516;2023-08-24T14:30:50;22.60;99.90
24408;DHT22;12542;50.924;4.516;2023-08-24T14:33:16;22.70;99.90
24408;DHT22;12542;50.924;4.516;2023-08-24T14:35:52;22.70;99.90
24408;DHT22;12542;50.924;4.516;2023-08-24T14:38:18;22.70;99.90
24408;DHT22;12542;50.924;4.516;2023-08-24T14:40:44;22.70;99.90
24408;DHT22;12542;50.924;4.516;2023-08-24T14:43:10;22.80;99.90
24408;DHT22;12542;50.924;4.516;2023-08-24T14:45:36;22.70;99.90
24408;DHT22;12542;50.924;4.516;2023-08-24T14:48:01;22.70;99.90
24408;DHT22;12542;50.924;4.516;2023-08-24T14:50:27;22.70;99.90
24408;DHT22;12542;50.924;4.516;2023-08-24T14:52:53;22.70;99.90
24408;DHT22;12542;50.924;4.516;2023-08-24T14:55:18;22.80;99.90
24408;DHT22;12542;50.924;4.516;2023-08-24T14:57:44;23.00;99.90
24408;DHT22;12542;50.924;4.516;2023-08-24T15:00:10;23.00;99.90
24408;DHT22;12542;50.924;4.516;2023-08-24T15:02:36;23.10;99.90
24408;DHT22;12542;50.924;4.516;2023-08-24T15:05:07;23.00;99.90
24408;DHT22;12542;50.924;4.516;2023-08-24T15:07:33;22.80;99.90
24408;DHT22;12542;50.924;4.516;2023-08-24T15:09:58;22.80;99.90
24408;DHT22;12542;50.924;4.516;2023-08-24T15:12:24;22.80;99.90
24408;DHT22;12542;50.924;4.516;2023-08-24T15:14:57;22.80;99.90
24408;DHT22;12542;50.924;4.516;2023-08-24T15:17:23;22.80;99.90
24408;DHT22;12542;50.924;4.516;2023-08-24T15:19:49;22.80;99.90
24408;DHT22;12542;50.924;4.516;2023-08-24T15:22:14;22.90;99.90
24408;DHT22;12542;50.924;4.516;2023-08-24T15:24:40;22.90;99.90
24408;DHT22;12542;50.924;4.516;2023-08-24T15:27:07;23.00;99.90
24408;DHT22;12542;50.924;4.516;2023-08-24T15:29:33;23.20;99.90
24408;DHT22;12542;50.924;4.516;2023-08-24T15:31:59;23.50;99.90
24408;DHT22;12542;50.924;4.516;2023-08-24T15:34:25;23.70;99.90
24408;DHT22;12542;50.924;4.516;2023-08-24T15:36:51;23.90;99.90
24408;DHT22;12542;50.924;4.516;2023-08-24T15:39:21;24.00;99.90
24408;DHT22;12542;50.924;4.516;2023-08-24T15:41:47;24.20;99.90
24408;DHT22;12542;50.924;4.516;2023-08-24T15:44:12;24.40;99.90
24408;DHT22;12542;50.924;4.516;2023-08-24T15:46:38;24.60;99.90
24408;DHT22;12542;50.924;4.516;2023-08-24T15:49:04;24.60;99.90
24408;DHT22;12542;50.924;4.516;2023-08-24T15:51:30;24.60;99.90